Time,TemperatureF,DewpointF,PressureIn,WindDirection,WindDirectionDegrees,WindSpeedMPH,WindSpeedGustMPH,Humidity,HourlyPrecipIn,Conditions,Clouds,dailyrainin,SolarRadiationWatts/m^2,SoftwareType,DateUTC
2013-12-01 00:02:00,22.0,16.0,-100.00,East,82,2.0,4.0,78,0.00,,,0.00,0.000000,,2013-12-01 05:02:00,
2013-12-01 00:10:00,21.0,16.0,-100.00,NNE,21,1.0,3.0,79,0.00,,,0.00,0.000000,,2013-12-01 05:10:00,
2013-12-01 00:43:00,21.0,16.0,-100.00,NNE,21,1.0,3.0,79,0.00,,,0.00,0.000000,,2013-12-01 05:43:00,
2013-12-01 00:53:00,21.0,16.0,-100.00,NNE,21,1.0,3.0,79,0.00,,,0.00,0.000000,,2013-12-01 05:53:00,
2013-12-01 01:02:00,21.0,16.0,-100.00,NNE,21,1.0,3.0,79,0.00,,,0.00,0.000000,,2013-12-01 06:02:00,
2013-12-01 01:10:00,20.0,16.0,-100.00,ENE,70,2.0,3.0,84,0.00,,,0.00,0.000000,,2013-12-01 06:10:00,
2013-12-01 01:42:00,20.0,16.0,-100.00,ENE,70,2.0,3.0,84,0.00,,,0.00,0.000000,,2013-12-01 06:42:00,
2013-12-01 01:52:00,20.0,16.0,-100.00,ENE,70,2.0,3.0,84,0.00,,,0.00,0.000000,,2013-12-01 06:52:00,
2013-12-01 02:01:00,20.0,16.0,-100.00,ENE,70,2.0,3.0,84,0.00,,,0.00,0.000000,,2013-12-01 07:01:00,
2013-12-01 02:10:00,20.0,16.0,-100.00,ESE,107,1.0,3.0,85,0.00,,,0.00,0.000000,,2013-12-01 07:10:00,
2013-12-01 02:42:00,20.0,16.0,-100.00,ESE,107,1.0,3.0,85,0.00,,,0.00,0.000000,,2013-12-01 07:42:00,
2013-12-01 02:52:00,20.0,16.0,-100.00,ESE,107,1.0,3.0,85,0.00,,,0.00,0.000000,,2013-12-01 07:52:00,
2013-12-01 03:02:00,20.0,16.0,-100.00,ESE,107,1.0,3.0,85,0.00,,,0.00,0.000000,,2013-12-01 08:02:00,
2013-12-01 03:10:00,22.0,18.0,-100.00,NNW,348,0.0,2.0,83,0.00,,,0.00,0.000000,,2013-12-01 08:10:00,
2013-12-01 03:42:00,22.0,18.0,-100.00,NNW,348,0.0,2.0,83,0.00,,,0.00,0.000000,,2013-12-01 08:42:00,
2013-12-01 03:52:00,22.0,18.0,-100.00,NNW,348,0.0,2.0,83,0.00,,,0.00,0.000000,,2013-12-01 08:52:00,
2013-12-01 04:02:00,22.0,18.0,-100.00,NNW,348,0.0,2.0,83,0.00,,,0.00,0.000000,,2013-12-01 09:02:00,
2013-12-01 04:10:00,22.0,18.0,-100.00,NNE,31,0.0,2.0,83,0.00,,,-99.99,0.000000,,2013-12-01 09:10:00,
2013-12-01 04:43:00,22.0,18.0,-100.00,NNE,31,0.0,2.0,83,0.00,,,-99.99,0.000000,,2013-12-01 09:43:00,
2013-12-01 04:54:00,22.0,18.0,-100.00,NNE,31,0.0,2.0,83,0.00,,,-99.99,0.000000,,2013-12-01 09:54:00,
2013-12-01 05:03:00,22.0,18.0,-100.00,NNE,31,0.0,2.0,83,0.00,,,-99.99,0.000000,,2013-12-01 10:03:00,
2013-12-01 05:10:00,23.0,19.0,-100.00,NNE,31,0.0,0.0,84,0.00,,,0.00,0.000000,,2013-12-01 10:10:00,
2013-12-01 05:42:00,23.0,19.0,-100.00,NNE,31,0.0,0.0,84,0.00,,,0.00,0.000000,,2013-12-01 10:42:00,
2013-12-01 05:53:00,23.0,19.0,-100.00,NNE,31,0.0,0.0,84,0.00,,,0.00,0.000000,,2013-12-01 10:53:00,
2013-12-01 06:02:00,23.0,19.0,-100.00,NNE,31,0.0,0.0,84,0.00,,,0.00,0.000000,,2013-12-01 11:02:00,
2013-12-01 06:10:00,23.0,19.0,-100.00,ESE,111,0.0,2.0,83,0.00,,,0.00,0.000000,,2013-12-01 11:10:00,
2013-12-01 06:42:00,23.0,19.0,-100.00,ESE,111,0.0,2.0,83,0.00,,,0.00,0.000000,,2013-12-01 11:42:00,
2013-12-01 06:52:00,23.0,19.0,-100.00,ESE,111,0.0,2.0,83,0.00,,,0.00,0.000000,,2013-12-01 11:52:00,
2013-12-01 07:02:00,23.0,19.0,-100.00,ESE,111,0.0,2.0,83,0.00,,,0.00,0.000000,,2013-12-01 12:02:00,
2013-12-01 07:10:00,24.0,20.0,-100.00,WSW,242,0.0,1.0,85,0.00,,,0.00,0.000000,,2013-12-01 12:10:00,
2013-12-01 07:42:00,24.0,20.0,-100.00,WSW,242,0.0,1.0,85,0.00,,,0.00,0.000000,,2013-12-01 12:42:00,
2013-12-01 07:52:00,24.0,20.0,-100.00,WSW,242,0.0,1.0,85,0.00,,,0.00,0.000000,,2013-12-01 12:52:00,
2013-12-01 08:01:00,24.0,20.0,-100.00,WSW,242,0.0,1.0,85,0.00,,,0.00,0.000000,,2013-12-01 13:01:00,
2013-12-01 08:10:00,24.0,20.0,-100.00,ENE,69,1.0,1.0,85,0.00,,,0.00,5.000000,,2013-12-01 13:10:00,
2013-12-01 08:42:00,24.0,20.0,-100.00,ENE,69,1.0,1.0,85,0.00,,,0.00,5.000000,,2013-12-01 13:42:00,
2013-12-01 08:52:00,24.0,20.0,-100.00,ENE,69,1.0,1.0,85,0.00,,,0.00,5.000000,,2013-12-01 13:52:00,
2013-12-01 09:02:00,24.0,20.0,-100.00,ENE,69,1.0,1.0,85,0.00,,,0.00,5.000000,,2013-12-01 14:02:00,
2013-12-01 09:10:00,27.0,22.0,-100.00,East,91,0.0,0.0,82,0.00,,,0.00,15.000000,,2013-12-01 14:10:00,
2013-12-01 09:42:00,27.0,22.0,-100.00,East,91,0.0,0.0,82,0.00,,,0.00,15.000000,,2013-12-01 14:42:00,
2013-12-01 09:52:00,27.0,22.0,-100.00,East,91,0.0,0.0,82,0.00,,,0.00,15.000000,,2013-12-01 14:52:00,
2013-12-01 10:02:00,27.0,22.0,-100.00,East,91,0.0,0.0,82,0.00,,,0.00,15.000000,,2013-12-01 15:02:00,
2013-12-01 10:10:00,30.0,22.0,-100.00,WSW,253,0.0,0.0,72,0.00,,,0.00,29.000000,,2013-12-01 15:10:00,
2013-12-01 10:43:00,30.0,22.0,-100.00,WSW,253,0.0,0.0,72,0.00,,,0.00,29.000000,,2013-12-01 15:43:00,
2013-12-01 10:54:00,30.0,22.0,-100.00,WSW,253,0.0,0.0,72,0.00,,,0.00,29.000000,,2013-12-01 15:54:00,
2013-12-01 11:03:00,30.0,22.0,-100.00,WSW,253,0.0,0.0,72,0.00,,,0.00,29.000000,,2013-12-01 16:03:00,
2013-12-01 11:10:00,33.0,24.0,-100.00,South,183,0.0,2.0,69,0.01,,,0.01,40.000000,,2013-12-01 16:10:00,
2013-12-01 11:43:00,33.0,24.0,-100.00,South,183,0.0,2.0,69,0.01,,,0.01,40.000000,,2013-12-01 16:43:00,
2013-12-01 11:52:00,33.0,24.0,-100.00,South,183,0.0,2.0,69,0.01,,,0.01,40.000000,,2013-12-01 16:52:00,
2013-12-01 12:02:00,33.0,24.0,-100.00,South,183,0.0,2.0,69,0.01,,,0.01,40.000000,,2013-12-01 17:02:00,
2013-12-01 12:10:00,34.0,24.0,-100.00,NNW,336,0.0,2.0,67,0.00,,,0.01,41.000000,,2013-12-01 17:10:00,
2013-12-01 12:42:00,34.0,24.0,-100.00,NNW,336,0.0,2.0,67,0.00,,,0.01,41.000000,,2013-12-01 17:42:00,
2013-12-01 12:52:00,34.0,24.0,-100.00,NNW,336,0.0,2.0,67,0.00,,,0.01,41.000000,,2013-12-01 17:52:00,
2013-12-01 13:02:00,34.0,24.0,-100.00,NNW,336,0.0,2.0,67,0.00,,,0.01,41.000000,,2013-12-01 18:02:00,
2013-12-01 13:10:00,37.0,26.0,-100.00,NW,305,1.0,2.0,64,0.03,,,0.04,68.000000,,2013-12-01 18:10:00,
2013-12-01 13:42:00,37.0,26.0,-100.00,NW,305,1.0,2.0,64,0.03,,,0.04,68.000000,,2013-12-01 18:42:00,
2013-12-01 13:52:00,37.0,26.0,-100.00,NW,305,1.0,2.0,64,0.03,,,0.04,68.000000,,2013-12-01 18:52:00,
2013-12-01 14:02:00,37.0,26.0,-100.00,NW,305,1.0,2.0,64,0.03,,,0.04,68.000000,,2013-12-01 19:02:00,
2013-12-01 14:10:00,37.0,26.0,-100.00,NNW,336,0.0,2.0,64,0.01,,,0.05,84.000000,,2013-12-01 19:10:00,
2013-12-01 14:42:00,37.0,26.0,-100.00,NNW,336,0.0,2.0,64,0.01,,,0.05,84.000000,,2013-12-01 19:42:00,
2013-12-01 14:52:00,37.0,26.0,-100.00,NNW,336,0.0,2.0,64,0.01,,,0.05,84.000000,,2013-12-01 19:52:00,
2013-12-01 15:01:00,37.0,26.0,-100.00,NNW,336,0.0,2.0,64,0.01,,,0.05,84.000000,,2013-12-01 20:01:00,
2013-12-01 15:10:00,34.0,25.0,-100.00,SSW,204,0.0,2.0,69,0.01,,,0.06,38.000000,,2013-12-01 20:10:00,
2013-12-01 15:42:00,34.0,25.0,-100.00,SSW,204,0.0,2.0,69,0.01,,,0.06,38.000000,,2013-12-01 20:42:00,
2013-12-01 15:52:00,34.0,25.0,-100.00,SSW,204,0.0,2.0,69,0.01,,,0.06,38.000000,,2013-12-01 20:52:00,
2013-12-01 16:02:00,34.0,25.0,-100.00,SSW,204,0.0,2.0,69,0.01,,,0.06,38.000000,,2013-12-01 21:02:00,
2013-12-01 16:10:00,32.0,26.0,-100.00,WSW,243,1.0,1.0,78,0.01,,,0.07,9.000000,,2013-12-01 21:10:00,
2013-12-01 16:43:00,32.0,26.0,-100.00,WSW,243,1.0,1.0,78,0.01,,,0.07,9.000000,,2013-12-01 21:43:00,
2013-12-01 16:53:00,32.0,26.0,-100.00,WSW,243,1.0,1.0,78,0.01,,,0.07,9.000000,,2013-12-01 21:53:00,
2013-12-01 17:03:00,32.0,26.0,-100.00,WSW,243,1.0,1.0,78,0.01,,,0.07,9.000000,,2013-12-01 22:03:00,
2013-12-01 17:10:00,31.0,28.0,-100.00,West,260,0.0,2.0,89,0.00,,,0.07,0.000000,,2013-12-01 22:10:00,
2013-12-01 17:43:00,31.0,28.0,-100.00,West,260,0.0,2.0,89,0.00,,,0.07,0.000000,,2013-12-01 22:43:00,
2013-12-01 17:53:00,31.0,28.0,-100.00,West,260,0.0,2.0,89,0.00,,,0.07,0.000000,,2013-12-01 22:53:00,
2013-12-01 18:02:00,31.0,28.0,-100.00,West,260,0.0,2.0,89,0.00,,,0.07,0.000000,,2013-12-01 23:02:00,
2013-12-01 18:10:00,31.0,29.0,-100.00,SSW,202,1.0,2.0,92,0.00,,,0.07,0.000000,,2013-12-01 23:10:00,
2013-12-01 18:42:00,31.0,29.0,-100.00,SSW,202,1.0,2.0,92,0.00,,,0.07,0.000000,,2013-12-01 23:42:00,
2013-12-01 18:52:00,31.0,29.0,-100.00,SSW,202,1.0,2.0,92,0.00,,,0.07,0.000000,,2013-12-01 23:52:00,
2013-12-01 19:02:00,31.0,29.0,-100.00,SSW,202,1.0,2.0,92,0.00,,,0.07,0.000000,,2013-12-02 00:02:00,
2013-12-01 19:10:00,30.0,28.0,-100.00,WSW,239,1.0,2.0,93,0.00,,,0.07,0.000000,,2013-12-02 00:10:00,
2013-12-01 19:42:00,30.0,28.0,-100.00,WSW,239,1.0,2.0,93,0.00,,,0.07,0.000000,,2013-12-02 00:42:00,
2013-12-01 19:52:00,30.0,28.0,-100.00,WSW,239,1.0,2.0,93,0.00,,,0.07,0.000000,,2013-12-02 00:52:00,
2013-12-01 20:02:00,30.0,28.0,-100.00,WSW,239,1.0,2.0,93,0.00,,,0.07,0.000000,,2013-12-02 01:02:00,
2013-12-01 20:10:00,30.0,28.0,-100.00,South,170,1.0,3.0,94,0.00,,,0.07,0.000000,,2013-12-02 01:10:00,
2013-12-01 20:42:00,30.0,28.0,-100.00,South,170,1.0,3.0,94,0.00,,,0.07,0.000000,,2013-12-02 01:42:00,
2013-12-01 20:52:00,30.0,28.0,-100.00,South,170,1.0,3.0,94,0.00,,,0.07,0.000000,,2013-12-02 01:52:00,
2013-12-01 21:01:00,30.0,28.0,-100.00,South,170,1.0,3.0,94,0.00,,,0.07,0.000000,,2013-12-02 02:01:00,
2013-12-01 21:10:00,30.0,28.0,-100.00,NE,40,0.0,1.0,94,0.00,,,0.07,0.000000,,2013-12-02 02:10:00,
2013-12-01 21:42:00,30.0,28.0,-100.00,NE,40,0.0,1.0,94,0.00,,,0.07,0.000000,,2013-12-02 02:42:00,
2013-12-01 21:52:00,30.0,28.0,-100.00,NE,40,0.0,1.0,94,0.00,,,0.07,0.000000,,2013-12-02 02:52:00,
2013-12-01 22:02:00,30.0,28.0,-100.00,NE,40,0.0,1.0,94,0.00,,,0.07,0.000000,,2013-12-02 03:02:00,
2013-12-01 22:10:00,30.0,28.0,-100.00,SW,214,1.0,1.0,94,0.00,,,0.07,0.000000,,2013-12-02 03:10:00,
2013-12-01 22:43:00,30.0,28.0,-100.00,SW,214,1.0,1.0,94,0.00,,,0.07,0.000000,,2013-12-02 03:43:00,
2013-12-01 22:54:00,30.0,28.0,-100.00,SW,214,1.0,1.0,94,0.00,,,0.07,0.000000,,2013-12-02 03:54:00,
2013-12-01 23:03:00,30.0,28.0,-100.00,SW,214,1.0,1.0,94,0.00,,,0.07,0.000000,,2013-12-02 04:03:00,
2013-12-01 23:10:00,29.0,27.0,-100.00,East,93,0.0,0.0,94,0.00,,,0.07,0.000000,,2013-12-02 04:10:00,
2013-12-01 23:43:00,29.0,27.0,-100.00,East,93,0.0,0.0,94,0.00,,,0.07,0.000000,,2013-12-02 04:43:00,
2013-12-01 23:53:00,29.0,27.0,-100.00,East,93,0.0,0.0,94,0.00,,,0.07,0.000000,,2013-12-02 04:53:00,